createdAt,value
2022-11-24T00:01:18.021Z,153.35
2022-11-24T00:03:46.540Z,166.13
2022-11-24T00:06:16.002Z,160.48
2022-11-24T00:08:44.401Z,154.70
2022-11-24T00:11:14.423Z,170.63
2022-11-24T00:13:41.621Z,167.48
2022-11-24T00:16:22.367Z,171.02
2022-11-24T00:18:51.832Z,167.02
2022-11-24T00:21:19.294Z,157.57
2022-11-24T00:23:46.714Z,160.98
2022-11-24T00:26:18.990Z,157.05
2022-11-24T00:28:47.825Z,171.80
2022-11-24T00:31:21.722Z,170.50
2022-11-24T00:33:50.411Z,186.32
2022-11-24T00:36:18.454Z,154.75
2022-11-24T00:38:45.503Z,155.98
2022-11-24T00:41:12.414Z,162.88
2022-11-24T00:43:39.019Z,161.55
2022-11-24T00:46:06.024Z,164.82
2022-11-24T00:48:32.760Z,155.02
2022-11-24T00:51:05.326Z,161.02
2022-11-24T00:53:32.088Z,154.75
2022-11-24T00:55:59.374Z,158.85
2022-11-24T00:58:26.077Z,149.40
2022-11-24T01:00:53.292Z,146.05
2022-11-24T01:03:20.705Z,152.30
2022-11-24T01:05:47.557Z,154.27
2022-11-24T01:08:14.351Z,158.10
2022-11-24T01:10:40.952Z,154.23
2022-11-24T01:13:07.598Z,155.07
2022-11-24T01:15:38.088Z,152.55
2022-11-24T01:18:05.839Z,153.55
2022-11-24T01:20:32.956Z,155.45
2022-11-24T01:22:59.533Z,152.57
2022-11-24T01:25:26.167Z,148.07
2022-11-24T01:27:52.799Z,152.00
2022-11-24T01:30:19.622Z,156.25
2022-11-24T01:32:46.206Z,154.75
2022-11-24T01:35:12.812Z,159.65
2022-11-24T01:37:39.496Z,157.82
2022-11-24T01:40:07.023Z,162.20
2022-11-24T01:43:02.942Z,144.68
2022-11-24T01:45:37.127Z,147.95
2022-11-24T01:48:07.551Z,154.40
2022-11-24T01:50:36.476Z,144.50
2022-11-24T01:53:04.633Z,153.10
2022-11-24T01:55:35.769Z,160.05
2022-11-24T01:58:18.910Z,154.90
2022-11-24T02:00:46.119Z,149.75
2022-11-24T02:03:18.220Z,147.70
2022-11-24T02:05:51.376Z,158.77
2022-11-24T02:08:27.309Z,158.32
2022-11-24T02:10:55.071Z,151.90
2022-11-24T02:13:22.552Z,149.98
2022-11-24T02:15:49.532Z,156.35
2022-11-24T02:18:16.194Z,154.23
2022-11-24T02:20:42.838Z,158.82
2022-11-24T02:23:20.044Z,150.27
2022-11-24T02:25:49.596Z,154.00
2022-11-24T02:28:20.071Z,161.18
2022-11-24T02:30:47.153Z,162.07
2022-11-24T02:33:13.989Z,154.40
2022-11-24T02:35:40.708Z,145.88
2022-11-24T02:38:07.627Z,149.63
2022-11-24T02:40:34.395Z,162.48
2022-11-24T02:43:09.559Z,151.25
2022-11-24T02:45:36.215Z,148.23
2022-11-24T02:48:03.169Z,162.95
2022-11-24T02:50:29.816Z,156.95
2022-11-24T02:52:56.448Z,161.90
2022-11-24T02:55:23.680Z,151.20
2022-11-24T02:57:50.534Z,161.05
2022-11-24T03:00:18.115Z,156.23
2022-11-24T03:02:44.946Z,157.55
2022-11-24T03:05:12.971Z,151.32
2022-11-24T03:07:39.742Z,155.95
2022-11-24T03:10:07.035Z,152.30
2022-11-24T03:12:33.685Z,147.07
2022-11-24T03:15:00.387Z,152.80
2022-11-24T03:17:27.123Z,149.98
2022-11-24T03:19:53.825Z,156.88
2022-11-24T03:22:20.464Z,153.57
2022-11-24T03:24:47.071Z,156.27
2022-11-24T03:27:13.672Z,149.65
2022-11-24T03:29:40.258Z,154.55
2022-11-24T03:32:06.905Z,156.88
2022-11-24T03:34:33.676Z,151.60
2022-11-24T03:37:00.525Z,148.57
2022-11-24T03:39:27.079Z,147.57
2022-11-24T03:41:53.675Z,149.00
2022-11-24T03:44:20.244Z,155.00
2022-11-24T03:46:46.933Z,151.60
2022-11-24T03:49:13.577Z,150.70
2022-11-24T03:51:40.179Z,160.13
2022-11-24T03:54:07.038Z,152.32
2022-11-24T03:56:33.716Z,160.57
2022-11-24T03:59:01.479Z,151.90
2022-11-24T04:01:28.085Z,158.52
2022-11-24T04:03:54.736Z,161.25
2022-11-24T04:06:21.519Z,149.18
2022-11-24T04:08:48.176Z,155.15
2022-11-24T04:11:34.723Z,143.45
2022-11-24T04:14:01.307Z,151.63
2022-11-24T04:16:28.006Z,162.00
2022-11-24T04:18:54.786Z,145.52
2022-11-24T04:21:21.490Z,162.70
2022-11-24T04:23:48.099Z,150.45
2022-11-24T04:26:14.763Z,156.32
2022-11-24T04:28:41.463Z,156.18
2022-11-24T04:31:08.086Z,156.05
2022-11-24T04:33:34.740Z,149.27
2022-11-24T04:36:01.321Z,150.02
2022-11-24T04:39:19.491Z,155.63
2022-11-24T04:41:14.524Z,148.68
2022-11-24T04:43:41.148Z,151.80
2022-11-24T04:46:10.864Z,150.15
2022-11-24T04:48:37.495Z,153.82
2022-11-24T04:51:05.752Z,158.38
2022-11-24T04:53:32.486Z,156.15
2022-11-24T04:55:59.315Z,148.02
2022-11-24T04:58:25.976Z,154.15
2022-11-24T05:00:52.802Z,161.20
2022-11-24T05:03:19.406Z,152.65
2022-11-24T05:05:46.070Z,153.48
2022-11-24T05:08:12.694Z,149.63
2022-11-24T05:10:40.126Z,153.32
2022-11-24T05:13:10.624Z,147.82
2022-11-24T05:15:38.627Z,147.23
2022-11-24T05:18:07.159Z,150.82
2022-11-24T05:20:34.569Z,159.95
2022-11-24T05:23:03.037Z,146.48
2022-11-24T05:25:30.244Z,149.73
2022-11-24T05:28:04.107Z,150.02
2022-11-24T05:30:31.582Z,155.85
2022-11-24T05:32:58.875Z,142.05
2022-11-24T05:35:25.660Z,160.77
2022-11-24T05:37:52.489Z,150.75
2022-11-24T05:40:19.125Z,156.50
2022-11-24T05:42:48.143Z,160.93
2022-11-24T05:45:19.082Z,160.65
2022-11-24T05:47:47.011Z,159.05
2022-11-24T05:50:15.574Z,171.93
2022-11-24T05:52:42.452Z,171.07
2022-11-24T05:55:10.747Z,165.77
2022-11-24T05:57:37.876Z,159.35
2022-11-24T06:00:06.995Z,153.75
2022-11-24T06:02:39.701Z,150.38
2022-11-24T06:05:06.660Z,164.85
2022-11-24T06:07:33.406Z,149.65
2022-11-24T06:10:00.088Z,148.15
2022-11-24T06:12:26.715Z,147.93
2022-11-24T06:14:53.489Z,160.23
2022-11-24T06:17:20.114Z,150.98
2022-11-24T06:19:50.140Z,151.93
2022-11-24T06:22:17.659Z,157.50
2022-11-24T06:24:44.319Z,156.45
2022-11-24T06:27:11.009Z,152.57
2022-11-24T06:29:37.610Z,154.00
2022-11-24T06:32:04.815Z,165.65
2022-11-24T06:34:31.703Z,175.27
2022-11-24T06:36:58.564Z,162.48
2022-11-24T06:39:25.162Z,171.60
2022-11-24T06:41:52.524Z,170.23
2022-11-24T06:44:19.764Z,159.20
2022-11-24T06:46:46.396Z,168.60
2022-11-24T06:49:13.008Z,158.45
2022-11-24T06:51:39.685Z,156.05
2022-11-24T06:54:06.851Z,163.98
2022-11-24T06:56:33.982Z,165.20
2022-11-24T06:59:01.574Z,162.30
2022-11-24T07:01:30.010Z,157.43
2022-11-24T07:03:57.296Z,160.45
2022-11-24T07:06:25.686Z,173.32
2022-11-24T07:08:53.203Z,165.52
2022-11-24T07:11:23.045Z,165.20
2022-11-24T07:13:55.070Z,153.88
2022-11-24T07:16:27.242Z,148.90
2022-11-24T07:18:54.838Z,149.40
2022-11-24T07:21:23.835Z,155.05
2022-11-24T07:23:51.715Z,160.55
2022-11-24T07:26:19.275Z,162.05
2022-11-24T07:28:46.223Z,144.63
2022-11-24T07:31:16.031Z,152.88
2022-11-24T07:33:42.763Z,148.48
2022-11-24T07:36:09.788Z,151.90
2022-11-24T07:38:36.574Z,153.30
2022-11-24T07:41:05.220Z,160.85
2022-11-24T07:43:33.228Z,151.88
2022-11-24T07:46:00.016Z,154.23
2022-11-24T07:48:26.797Z,159.93
2022-11-24T07:50:56.011Z,145.68
2022-11-24T07:53:23.292Z,140.43
2022-11-24T07:55:58.370Z,151.52
2022-11-24T07:58:30.359Z,141.32
2022-11-24T08:00:59.221Z,153.68
2022-11-24T08:03:26.002Z,144.02
2022-11-24T08:08:44.398Z,162.00
2022-11-24T08:11:13.442Z,152.43
2022-11-24T08:13:40.433Z,171.52
2022-11-24T08:16:09.342Z,162.07
2022-11-24T08:18:37.316Z,153.75
2022-11-24T08:21:04.408Z,168.38
2022-11-24T08:23:31.977Z,151.45
2022-11-24T08:26:04.493Z,165.02
2022-11-24T08:28:31.974Z,163.90
2022-11-24T08:31:06.791Z,154.80
2022-11-24T08:33:33.451Z,154.27
2022-11-24T08:36:04.918Z,155.23
2022-11-24T08:38:31.795Z,158.23
2022-11-24T08:41:07.094Z,159.88
2022-11-24T08:43:34.125Z,162.07
2022-11-24T08:46:06.586Z,166.52
2022-11-24T08:48:33.890Z,163.00
2022-11-24T08:51:07.861Z,171.73
2022-11-24T08:53:34.625Z,160.45
2022-11-24T08:56:02.252Z,157.88
2022-11-24T08:58:29.508Z,157.68
2022-11-24T09:00:56.360Z,155.30
2022-11-24T09:03:23.016Z,160.52
2022-11-24T09:05:52.233Z,166.95
2022-11-24T09:08:19.272Z,170.90
2022-11-24T09:10:46.761Z,164.38
2022-11-24T09:13:13.490Z,164.70
2022-11-24T09:15:40.130Z,172.02
2022-11-24T09:18:06.846Z,171.63
2022-11-24T09:20:33.518Z,161.88
2022-11-24T09:23:00.108Z,163.90
2022-11-24T09:25:27.262Z,165.65
2022-11-24T09:27:54.642Z,174.00
2022-11-24T09:30:21.595Z,166.77
2022-11-24T09:32:48.248Z,164.32
2022-11-24T09:35:14.828Z,163.40
2022-11-24T09:37:43.436Z,165.25
2022-11-24T09:40:14.246Z,175.00
2022-11-24T09:42:52.106Z,161.32
2022-11-24T09:46:04.464Z,165.93
2022-11-24T09:48:33.550Z,168.07
2022-11-24T09:51:03.838Z,164.25
2022-11-24T09:53:42.198Z,164.50
2022-11-24T09:56:34.517Z,177.63
2022-11-24T09:59:05.483Z,162.50
2022-11-24T10:01:37.605Z,165.55
2022-11-24T10:04:14.154Z,171.07
2022-11-24T10:06:53.612Z,178.65
2022-11-24T10:09:41.396Z,171.52
2022-11-24T10:12:23.318Z,175.50
2022-11-24T10:15:20.766Z,170.65
2022-11-24T10:18:18.402Z,171.57
2022-11-24T10:21:01.468Z,175.93
2022-11-24T10:23:53.729Z,170.25
2022-11-24T10:26:27.008Z,172.48
2022-11-24T10:28:55.427Z,185.93
2022-11-24T10:31:32.905Z,178.50
2022-11-24T10:34:18.658Z,181.27
2022-11-24T10:36:45.207Z,169.98
2022-11-24T10:39:23.900Z,177.13
2022-11-24T10:42:11.319Z,175.65
2022-11-24T10:44:39.678Z,175.65
2022-11-24T10:47:18.544Z,177.60
2022-11-24T10:50:00.182Z,181.30
2022-11-24T10:52:30.276Z,185.45
2022-11-24T10:55:06.123Z,168.07
2022-11-24T10:57:35.494Z,180.18
2022-11-24T11:00:24.548Z,174.20
2022-11-24T11:03:10.659Z,185.30
2022-11-24T11:05:44.115Z,175.95
2022-11-24T11:08:14.226Z,170.57
2022-11-24T11:10:42.200Z,174.15
2022-11-24T11:13:29.765Z,182.73
2022-11-24T11:15:58.313Z,189.52
2022-11-24T11:18:33.514Z,213.85
2022-11-24T11:21:02.550Z,223.68
2022-11-24T11:23:32.468Z,216.95
2022-11-24T11:26:20.420Z,205.23
2022-11-24T11:34:48.035Z,205.55
2022-11-24T11:37:15.907Z,201.38
2022-11-24T11:39:48.937Z,204.60
2022-11-24T11:45:26.640Z,195.35
2022-11-24T11:47:56.239Z,214.55
2022-11-24T11:50:42.929Z,197.18
2022-11-24T11:53:52.429Z,201.98
2022-11-24T11:56:29.504Z,196.63
2022-11-24T11:59:24.364Z,195.73
2022-11-24T12:02:03.278Z,198.38
2022-11-24T12:04:53.064Z,200.85
2022-11-24T12:07:45.561Z,208.10
2022-11-24T12:10:33.223Z,203.80
2022-11-24T12:13:18.347Z,199.40
2022-11-24T12:15:51.214Z,198.25
2022-11-24T12:18:57.749Z,202.80
2022-11-24T12:21:49.128Z,194.70
2022-11-24T12:24:34.103Z,186.10
2022-11-24T12:27:28.830Z,191.55
2022-11-24T12:30:08.729Z,200.30
2022-11-24T12:32:38.976Z,191.55
2022-11-24T12:35:24.841Z,200.85
2022-11-24T12:38:22.576Z,200.27
2022-11-24T12:41:18.272Z,188.85
2022-11-24T12:43:52.108Z,194.35
2022-11-24T12:46:53.610Z,197.60
2022-11-24T12:49:44.107Z,196.07
2022-11-24T12:52:32.991Z,191.98
2022-11-24T12:55:01.494Z,199.55
2022-11-24T12:57:42.216Z,188.10
2022-11-24T13:00:36.923Z,188.23
2022-11-24T13:03:17.668Z,190.52
2022-11-24T13:05:47.080Z,191.55
2022-11-24T13:08:14.983Z,200.73
2022-11-24T13:10:58.132Z,193.45
2022-11-24T13:13:49.411Z,194.10
2022-11-24T13:16:53.689Z,197.75
2022-11-24T13:19:17.241Z,192.20
2022-11-24T13:21:45.493Z,200.10
2022-11-24T13:24:19.025Z,189.40
2022-11-24T13:26:49.334Z,196.55
2022-11-24T13:29:28.637Z,195.63
2022-11-24T13:32:17.624Z,194.95
2022-11-24T13:34:45.631Z,185.95
2022-11-24T13:37:31.962Z,188.07
2022-11-24T13:40:11.335Z,185.23
2022-11-24T13:42:57.262Z,186.02
2022-11-24T13:45:39.243Z,190.88
2022-11-24T13:48:28.888Z,205.10
2022-11-24T13:50:58.137Z,200.45
2022-11-24T13:53:41.925Z,202.95
2022-11-24T13:56:17.497Z,203.23
2022-11-24T13:59:16.714Z,200.48
2022-11-24T14:01:44.792Z,203.40
2022-11-24T14:04:36.046Z,196.52
2022-11-24T14:07:09.194Z,204.95
2022-11-24T14:09:52.043Z,202.00
2022-11-24T14:12:26.793Z,189.27
2022-11-24T14:14:57.555Z,194.15
2022-11-24T14:17:27.825Z,193.10
2022-11-24T14:19:56.764Z,194.90
2022-11-24T14:22:26.926Z,191.43
2022-11-24T14:25:01.411Z,196.60
2022-11-24T14:27:38.912Z,198.82
2022-11-24T14:30:13.471Z,193.75
2022-11-24T14:32:40.592Z,194.00
2022-11-24T14:35:35.276Z,194.55
2022-11-24T14:38:04.243Z,195.45
2022-11-24T14:40:37.503Z,196.30
2022-11-24T14:43:05.930Z,187.73
2022-11-24T14:45:34.710Z,200.63
2022-11-24T14:48:01.882Z,193.38
2022-11-24T14:50:28.712Z,196.27
2022-11-24T14:52:57.874Z,184.40
2022-11-24T14:55:30.708Z,186.82
2022-11-24T14:57:58.659Z,190.10
2022-11-24T15:00:25.380Z,189.48
2022-11-24T15:03:08.324Z,191.15
2022-11-24T15:05:56.243Z,188.13
2022-11-24T15:08:25.539Z,189.07
2022-11-24T15:11:03.218Z,184.73
2022-11-24T15:13:37.554Z,186.50
2022-11-24T15:16:16.058Z,185.35
2022-11-24T15:18:46.114Z,182.95
2022-11-24T15:21:18.851Z,188.65
2022-11-24T15:24:15.677Z,183.95
2022-11-24T15:26:43.207Z,184.05
2022-11-24T15:29:11.476Z,183.82
2022-11-24T15:31:39.356Z,191.93
2022-11-24T15:34:06.420Z,182.27
2022-11-24T15:36:33.310Z,193.07
2022-11-24T15:38:59.952Z,187.52
2022-11-24T15:41:31.727Z,186.70
2022-11-24T15:43:59.417Z,181.82
2022-11-24T15:46:27.986Z,190.85
2022-11-24T15:48:55.475Z,182.68
2022-11-24T15:51:25.352Z,181.73
2022-11-24T15:54:00.267Z,187.85
2022-11-24T15:56:33.564Z,184.10
2022-11-24T15:59:01.678Z,185.40
2022-11-24T16:01:33.622Z,193.02
2022-11-24T16:04:01.292Z,190.15
2022-11-24T16:06:28.042Z,186.75
2022-11-24T16:08:54.958Z,192.50
2022-11-24T16:11:22.688Z,181.75
2022-11-24T16:13:53.001Z,183.63
2022-11-24T16:16:21.342Z,185.48
2022-11-24T16:18:48.375Z,193.55
2022-11-24T16:21:15.145Z,200.93
2022-11-24T16:23:41.983Z,192.35
2022-11-24T16:26:10.055Z,188.38
2022-11-24T16:28:36.742Z,194.40
2022-11-24T16:31:03.370Z,195.00
2022-11-24T16:33:30.368Z,189.75
2022-11-24T16:35:57.420Z,187.57
2022-11-24T16:38:24.383Z,191.93
2022-11-24T16:40:56.280Z,189.98
2022-11-24T16:43:24.519Z,181.20
2022-11-24T16:46:22.465Z,177.77
2022-11-24T16:48:55.002Z,176.48
2022-11-24T16:51:23.835Z,176.15
2022-11-24T16:53:58.485Z,186.45
2022-11-24T16:56:25.498Z,170.43
2022-11-24T16:58:52.239Z,178.18
2022-11-24T17:01:19.188Z,190.27
2022-11-24T17:03:46.082Z,181.18
2022-11-24T17:06:18.160Z,168.60
2022-11-24T17:08:46.542Z,185.32
2022-11-24T17:11:18.800Z,180.27
2022-11-24T17:13:47.097Z,174.82
2022-11-24T17:16:16.524Z,177.05
2022-11-24T17:18:43.974Z,178.10
2022-11-24T17:21:14.106Z,181.43
2022-11-24T17:23:41.536Z,179.20
2022-11-24T17:26:11.423Z,189.90
2022-11-24T17:28:38.384Z,192.48
2022-11-24T17:31:22.915Z,180.85
2022-11-24T17:33:55.291Z,170.38
2022-11-24T17:36:22.965Z,173.70
2022-11-24T17:38:49.649Z,173.02
2022-11-24T17:41:17.571Z,178.13
2022-11-24T17:43:44.179Z,178.85
2022-11-24T17:46:11.000Z,181.15
2022-11-24T17:48:37.642Z,175.15
2022-11-24T17:51:12.575Z,179.63
2022-11-24T17:53:41.232Z,181.55
2022-11-24T17:56:12.461Z,174.02
2022-11-24T17:58:42.858Z,179.13
2022-11-24T18:01:11.416Z,172.98
2022-11-24T18:03:42.046Z,167.35
2022-11-24T18:06:13.819Z,181.23
2022-11-24T18:08:42.499Z,178.68
2022-11-24T18:11:19.928Z,177.00
2022-11-24T18:13:58.556Z,176.68
2022-11-24T18:16:29.997Z,190.40
2022-11-24T18:19:11.796Z,189.10
2022-11-24T18:21:40.865Z,183.23
2022-11-24T18:24:12.270Z,175.40
2022-11-24T18:26:40.415Z,185.10
2022-11-24T18:29:07.939Z,183.55
2022-11-24T18:31:35.948Z,182.25
2022-11-24T18:34:04.547Z,185.95
2022-11-24T18:36:31.646Z,182.63
2022-11-24T18:39:03.222Z,189.52
2022-11-24T18:41:29.891Z,198.15
2022-11-24T18:43:56.833Z,186.13
2022-11-24T18:46:23.650Z,186.25
2022-11-24T18:48:52.951Z,191.43
2022-11-24T18:51:19.543Z,194.75
2022-11-24T18:53:46.964Z,199.65
2022-11-24T18:56:17.616Z,184.93
2022-11-24T18:58:44.774Z,201.40
2022-11-24T19:01:16.979Z,202.10
2022-11-24T19:03:48.695Z,202.88
2022-11-24T19:06:18.867Z,189.07
2022-11-24T19:08:45.777Z,187.43
2022-11-24T19:11:24.055Z,188.05
2022-11-24T19:13:51.195Z,189.38
2022-11-24T19:16:19.506Z,184.68
2022-11-24T19:18:51.980Z,191.40
2022-11-24T19:21:20.754Z,197.88
2022-11-24T19:23:47.472Z,180.02
2022-11-24T19:26:14.851Z,178.48
2022-11-24T19:28:41.795Z,175.43
2022-11-24T19:31:11.246Z,173.75
2022-11-24T19:33:38.210Z,180.45
2022-11-24T19:36:18.553Z,172.05
2022-11-24T19:38:53.565Z,184.40
2022-11-24T19:41:22.572Z,174.70
2022-11-24T19:43:50.862Z,173.25
2022-11-24T19:46:18.395Z,166.60
2022-11-24T19:48:48.499Z,182.40
2022-11-24T19:51:17.505Z,192.77
2022-11-24T19:53:44.984Z,201.73
2022-11-24T19:56:18.617Z,190.25
2022-11-24T19:58:45.655Z,213.35
2022-11-24T20:01:16.638Z,205.82
2022-11-24T20:03:44.951Z,197.40
2022-11-24T20:06:13.263Z,211.50
2022-11-24T20:08:41.477Z,214.10
2022-11-24T20:11:11.090Z,197.32
2022-11-24T20:13:39.936Z,210.52
2022-11-24T20:16:11.985Z,205.65
2022-11-24T20:18:42.445Z,215.23
2022-11-24T20:21:20.770Z,209.63
2022-11-24T20:23:57.018Z,212.98
2022-11-24T20:28:53.038Z,215.32
2022-11-24T20:31:22.932Z,213.57
2022-11-24T20:33:49.990Z,211.00
2022-11-24T20:36:20.200Z,213.43
2022-11-24T20:38:48.198Z,227.98
2022-11-24T20:41:20.930Z,215.60
2022-11-24T20:43:48.678Z,227.43
2022-11-24T20:46:18.730Z,215.90
2022-11-24T20:48:46.386Z,224.93
2022-11-24T20:51:21.050Z,216.68
2022-11-24T20:53:56.013Z,212.55
2022-11-24T20:56:25.204Z,202.40
2022-11-24T20:58:52.923Z,198.55
2022-11-24T21:01:22.085Z,191.65
2022-11-24T21:03:53.228Z,202.95
2022-11-24T21:06:20.048Z,243.10
2022-11-24T21:08:46.840Z,216.48
2022-11-24T21:11:14.833Z,198.02
2022-11-24T21:13:44.330Z,194.13
2022-11-24T21:16:15.180Z,192.63
2022-11-24T21:18:43.155Z,185.15
2022-11-24T21:21:09.976Z,202.93
2022-11-24T21:23:36.733Z,202.30
2022-11-24T21:26:07.436Z,196.50
2022-11-24T21:28:37.779Z,185.80
2022-11-24T21:31:09.481Z,187.82
2022-11-24T21:33:44.911Z,204.80
2022-11-24T21:36:14.646Z,198.83
2022-11-24T21:38:42.707Z,184.82
2022-11-24T21:41:11.673Z,192.05
2022-11-24T21:43:38.692Z,196.50
2022-11-24T21:46:07.427Z,197.10
2022-11-24T21:48:36.202Z,190.73
2022-11-24T21:51:04.865Z,186.68
2022-11-24T21:53:35.786Z,195.18
2022-11-24T21:56:05.688Z,176.90
2022-11-24T21:58:33.126Z,196.50
2022-11-24T22:01:05.041Z,182.52
2022-11-24T22:03:32.034Z,186.52
2022-11-24T22:06:00.215Z,200.82
2022-11-24T22:08:28.444Z,197.10
2022-11-24T22:11:20.569Z,192.23
2022-11-24T22:13:47.989Z,176.55
2022-11-24T22:16:17.969Z,189.50
2022-11-24T22:18:45.718Z,191.05
2022-11-24T22:21:15.323Z,182.60
2022-11-24T22:23:42.230Z,176.50
2022-11-24T22:26:18.124Z,175.02
2022-11-24T22:28:45.408Z,185.20
2022-11-24T22:31:17.992Z,185.75
2022-11-24T22:33:45.339Z,186.15
2022-11-24T22:36:13.580Z,187.90
2022-11-24T22:38:40.775Z,187.55
2022-11-24T22:41:10.043Z,182.38
2022-11-24T22:43:39.280Z,177.45
2022-11-24T22:46:11.653Z,178.20
2022-11-24T22:48:38.972Z,183.48
2022-11-24T22:51:08.225Z,186.85
2022-11-24T22:53:35.073Z,173.98
2022-11-24T22:56:07.403Z,169.35
2022-11-24T22:58:34.251Z,176.93
2022-11-24T23:01:15.145Z,166.40
2022-11-24T23:03:42.554Z,165.48
2022-11-24T23:06:17.870Z,167.45
2022-11-24T23:08:44.594Z,174.68
2022-11-24T23:11:13.823Z,174.18
2022-11-24T23:13:41.082Z,162.27
2022-11-24T23:16:10.980Z,170.15
2022-11-24T23:18:38.155Z,163.95
2022-11-24T23:21:12.443Z,177.77
2022-11-24T23:23:39.553Z,177.82
2022-11-24T23:26:09.958Z,164.35
2022-11-24T23:28:37.464Z,168.00
2022-11-24T23:31:09.798Z,160.43
2022-11-24T23:33:37.079Z,171.88
2022-11-24T23:36:10.042Z,160.20
2022-11-24T23:38:37.134Z,158.43
2022-11-24T23:41:10.687Z,160.25
2022-11-24T23:43:38.902Z,169.02
2022-11-24T23:46:08.162Z,170.02
2022-11-24T23:48:35.932Z,167.57
2022-11-24T23:51:20.356Z,174.10
2022-11-24T23:53:47.579Z,164.43
2022-11-24T23:56:16.238Z,163.25
2022-11-24T23:58:43.452Z,170.05
